createdAt,value
2023-01-29T00:01:16.854Z,103011.56
2023-01-29T00:03:45.228Z,103010.56
2023-01-29T00:06:13.388Z,103004.91
2023-01-29T00:08:41.377Z,103007.34
2023-01-29T00:11:10.194Z,103006.75
2023-01-29T00:13:38.216Z,103017.31
2023-01-29T00:16:06.547Z,103009.97
2023-01-29T00:18:39.407Z,103013.22
2023-01-29T00:21:10.419Z,103009.97
2023-01-29T00:24:53.645Z,103016.38
2023-01-29T00:27:21.795Z,103019.78
2023-01-29T00:30:09.611Z,103014.31
2023-01-29T00:32:37.678Z,103026.13
2023-01-29T00:35:08.542Z,103017.59
2023-01-29T00:37:37.253Z,103016.59
2023-01-29T00:40:06.324Z,103015.16
2023-01-29T00:42:52.027Z,103010.78
2023-01-29T00:45:20.120Z,103014.19
2023-01-29T00:47:48.418Z,103011.63
2023-01-29T00:50:18.500Z,103008.13
2023-01-29T00:52:48.682Z,103010.59
2023-01-29T00:55:17.242Z,103010.59
2023-01-29T00:57:45.519Z,103010.78
2023-01-29T01:00:16.610Z,103006.97
2023-01-29T01:03:02.778Z,103002.94
2023-01-29T01:05:32.315Z,103005.13
2023-01-29T01:08:00.422Z,103002.16
2023-01-29T01:10:29.895Z,102995.59
2023-01-29T01:13:00.168Z,102995.84
2023-01-29T01:15:31.247Z,102995.59
2023-01-29T01:18:00.141Z,102988.69
2023-01-29T01:20:31.485Z,102983.13
2023-01-29T01:23:00.895Z,102976.16
2023-01-29T01:25:29.006Z,102984.34
2023-01-29T01:30:28.017Z,102986.06
2023-01-29T01:32:57.067Z,102976.81
2023-01-29T01:35:25.425Z,102967.22
2023-01-29T01:37:53.872Z,102971.88
2023-01-29T01:40:24.524Z,102971.56
2023-01-29T01:42:54.480Z,102966.03
2023-01-29T01:45:26.807Z,102967.50
2023-01-29T01:48:00.525Z,102960.53
2023-01-29T01:50:35.630Z,102967.72
2023-01-29T01:53:09.186Z,102966.31
2023-01-29T01:55:43.465Z,102970.75
2023-01-29T01:58:13.888Z,102971.22
2023-01-29T02:00:42.014Z,102969.78
2023-01-29T02:03:30.002Z,102975.19
2023-01-29T02:06:18.401Z,102985.03
2023-01-29T02:09:11.505Z,102987.66
2023-01-29T02:11:41.679Z,102987.91
2023-01-29T02:14:40.318Z,102986.34
2023-01-29T02:17:12.154Z,102976.16
2023-01-29T02:19:48.830Z,102977.22
2023-01-29T02:22:35.485Z,102979.38
2023-01-29T02:25:24.541Z,102972.72
2023-01-29T02:28:32.269Z,102971.88
2023-01-29T02:31:08.616Z,102961.00
2023-01-29T02:33:47.068Z,102962.69
2023-01-29T02:36:28.431Z,102969.34
2023-01-29T02:39:02.916Z,102982.53
2023-01-29T02:41:36.903Z,102965.19
2023-01-29T02:44:13.459Z,102965.66
2023-01-29T02:46:52.217Z,102978.38
2023-01-29T02:49:25.956Z,102978.63
2023-01-29T02:52:03.957Z,102967.94
2023-01-29T02:54:40.689Z,102987.25
2023-01-29T02:57:16.366Z,102987.09
2023-01-29T02:59:50.354Z,102987.72
2023-01-29T03:02:29.519Z,102988.00
2023-01-29T03:05:03.021Z,102979.44
2023-01-29T03:07:44.983Z,102972.09
2023-01-29T03:10:25.123Z,102972.22
2023-01-29T03:13:00.879Z,102966.94
2023-01-29T03:15:39.044Z,102960.31
2023-01-29T03:18:27.877Z,102958.63
2023-01-29T03:21:47.468Z,102951.66
2023-01-29T03:24:36.387Z,102955.22
2023-01-29T03:27:27.373Z,102940.47
2023-01-29T03:30:16.880Z,102948.44
2023-01-29T03:32:53.201Z,102941.75
2023-01-29T03:35:33.611Z,102935.63
2023-01-29T03:38:02.381Z,102933.66
2023-01-29T03:40:33.550Z,102941.59
2023-01-29T03:43:10.723Z,102926.56
2023-01-29T03:45:50.885Z,102922.38
2023-01-29T03:48:29.202Z,102932.28
2023-01-29T03:51:03.033Z,102925.13
2023-01-29T03:53:44.092Z,102926.56
2023-01-29T03:56:27.319Z,102928.88
2023-01-29T03:59:01.809Z,102925.06
2023-01-29T04:01:52.590Z,102922.09
2023-01-29T04:04:26.097Z,102928.13
2023-01-29T04:06:58.788Z,102921.38
2023-01-29T04:09:32.010Z,102930.56
2023-01-29T04:12:05.278Z,102922.47
2023-01-29T04:14:34.321Z,102912.31
2023-01-29T04:17:10.255Z,102922.09
2023-01-29T04:19:49.094Z,102920.88
2023-01-29T04:22:21.589Z,102915.59
2023-01-29T04:24:50.939Z,102925.38
2023-01-29T04:27:28.299Z,102913.19
2023-01-29T04:30:17.899Z,102916.44
2023-01-29T04:33:02.469Z,102908.63
2023-01-29T04:35:38.155Z,102909.09
2023-01-29T04:38:13.176Z,102907.66
2023-01-29T04:40:52.468Z,102911.06
2023-01-29T04:43:28.014Z,102904.97
2023-01-29T04:46:11.560Z,102907.53
2023-01-29T04:48:49.460Z,102904.25
2023-01-29T04:51:25.751Z,102904.97
2023-01-29T04:54:03.305Z,102907.47
2023-01-29T04:56:37.223Z,102902.78
2023-01-29T04:59:09.251Z,102895.44
2023-01-29T05:01:39.724Z,102890.50
2023-01-29T05:04:14.204Z,102883.81
2023-01-29T05:06:46.630Z,102881.25
2023-01-29T05:09:40.847Z,102883.69
2023-01-29T05:12:11.935Z,102877.53
2023-01-29T05:14:40.776Z,102870.75
2023-01-29T05:17:15.675Z,102860.97
2023-01-29T05:19:44.089Z,102853.63
2023-01-29T05:22:16.614Z,102844.09
2023-01-29T05:24:44.878Z,102839.44
2023-01-29T05:27:36.013Z,102848.75
2023-01-29T05:30:04.942Z,102844.84
2023-01-29T05:32:33.141Z,102840.19
2023-01-29T05:35:01.242Z,102846.69
2023-01-29T05:37:31.031Z,102833.78
2023-01-29T05:39:59.017Z,102834.25
2023-01-29T05:42:27.035Z,102838.44
2023-01-29T05:44:55.222Z,102841.03
2023-01-29T05:47:23.262Z,102840.19
2023-01-29T05:49:51.247Z,102827.13
2023-01-29T05:52:19.251Z,102825.44
2023-01-29T05:54:49.125Z,102826.03
2023-01-29T05:57:17.127Z,102820.50
2023-01-29T05:59:45.117Z,102816.53
2023-01-29T06:02:13.298Z,102819.78
2023-01-29T06:04:41.466Z,102821.91
2023-01-29T06:07:09.637Z,102818.53
2023-01-29T06:09:37.680Z,102820.78
2023-01-29T06:12:08.112Z,102824.59
2023-01-29T06:14:36.186Z,102817.38
2023-01-29T06:17:04.942Z,102817.63
2023-01-29T06:19:33.025Z,102813.56
2023-01-29T06:22:01.103Z,102807.00
2023-01-29T06:24:29.235Z,102805.03
2023-01-29T06:26:57.232Z,102807.44
2023-01-29T06:29:26.645Z,102797.78
2023-01-29T06:31:54.675Z,102797.41
2023-01-29T06:34:22.711Z,102799.69
2023-01-29T06:36:50.722Z,102811.16
2023-01-29T06:39:19.210Z,102809.84
2023-01-29T06:41:47.404Z,102818.38
2023-01-29T06:44:15.419Z,102819.78
2023-01-29T06:46:44.783Z,102811.25
2023-01-29T06:49:12.898Z,102816.13
2023-01-29T06:51:40.988Z,102811.72
2023-01-29T06:54:10.429Z,102818.38
2023-01-29T06:56:38.473Z,102822.09
2023-01-29T06:59:06.512Z,102815.13
2023-01-29T07:01:36.432Z,102816.06
2023-01-29T07:04:06.389Z,102815.25
2023-01-29T07:06:34.919Z,102804.34
2023-01-29T07:09:03.550Z,102802.38
2023-01-29T07:11:31.956Z,102788.94
2023-01-29T07:13:59.942Z,102782.38
2023-01-29T07:16:53.656Z,102779.78
2023-01-29T07:19:23.949Z,102785.78
2023-01-29T07:21:52.039Z,102787.75
2023-01-29T07:24:20.259Z,102787.03
2023-01-29T07:26:48.385Z,102793.53
2023-01-29T07:29:16.344Z,102790.84
2023-01-29T07:35:52.772Z,102794.19
2023-01-29T07:38:21.361Z,102791.00
2023-01-29T07:40:50.460Z,102787.97
2023-01-29T07:43:18.445Z,102783.44
2023-01-29T07:45:46.497Z,102788.13
2023-01-29T07:48:14.715Z,102785.88
2023-01-29T07:50:44.048Z,102778.50
2023-01-29T07:53:15.961Z,102770.19
2023-01-29T07:55:46.129Z,102764.25
2023-01-29T07:58:14.393Z,102768.47
2023-01-29T08:00:42.663Z,102772.00
2023-01-29T08:03:12.890Z,102766.75
2023-01-29T08:05:42.440Z,102773.00
2023-01-29T08:08:10.878Z,102772.03
2023-01-29T08:10:41.659Z,102767.34
2023-01-29T08:13:09.926Z,102775.34
2023-01-29T08:15:39.359Z,102766.50
2023-01-29T08:18:07.895Z,102773.28
2023-01-29T08:20:35.841Z,102759.31
2023-01-29T08:23:06.001Z,102770.78
2023-01-29T08:25:34.980Z,102767.09
2023-01-29T08:28:05.220Z,102766.56
2023-01-29T08:30:34.858Z,102766.56
2023-01-29T08:33:04.309Z,102767.13
2023-01-29T08:35:32.352Z,102767.41
2023-01-29T08:38:02.149Z,102769.69
2023-01-29T08:40:32.813Z,102760.63
2023-01-29T08:43:02.535Z,102765.72
2023-01-29T08:45:35.353Z,102759.09
2023-01-29T08:48:03.726Z,102754.13
2023-01-29T08:50:32.444Z,102754.69
2023-01-29T08:53:01.491Z,102764.34
2023-01-29T08:55:30.489Z,102765.19
2023-01-29T08:57:58.536Z,102753.28
2023-01-29T09:00:26.836Z,102761.94
2023-01-29T09:02:56.199Z,102764.34
2023-01-29T09:05:24.266Z,102753.88
2023-01-29T09:07:54.219Z,102764.94
2023-01-29T09:10:22.466Z,102761.09
2023-01-29T09:12:50.442Z,102759.69
2023-01-29T09:15:18.942Z,102764.78
2023-01-29T09:17:47.257Z,102759.56
2023-01-29T09:20:17.137Z,102765.50
2023-01-29T09:22:45.629Z,102761.97
2023-01-29T09:25:14.741Z,102752.47
2023-01-29T09:27:43.247Z,102748.50
2023-01-29T09:30:12.716Z,102753.31
2023-01-29T09:32:56.029Z,102747.50
2023-01-29T09:35:27.001Z,102747.09
2023-01-29T09:37:55.121Z,102750.63
2023-01-29T09:40:27.738Z,102750.91
2023-01-29T09:43:02.891Z,102748.94
2023-01-29T09:45:31.649Z,102751.66
2023-01-29T09:48:01.713Z,102746.66
2023-01-29T09:50:40.868Z,102751.34
2023-01-29T09:53:19.004Z,102755.63
2023-01-29T09:55:51.987Z,102749.78
2023-01-29T09:58:26.503Z,102748.66
2023-01-29T10:01:01.174Z,102754.47
2023-01-29T10:03:44.953Z,102754.22
2023-01-29T10:06:26.652Z,102754.22
2023-01-29T10:09:18.683Z,102747.69
2023-01-29T10:11:56.313Z,102757.88
2023-01-29T10:14:37.770Z,102748.81
2023-01-29T10:17:22.432Z,102744.16
2023-01-29T10:20:11.328Z,102748.28
2023-01-29T10:23:05.738Z,102739.31
2023-01-29T10:25:37.960Z,102743.56
2023-01-29T10:28:17.116Z,102727.53
2023-01-29T10:30:49.716Z,102736.63
2023-01-29T10:33:24.740Z,102742.00
2023-01-29T10:35:56.909Z,102732.50
2023-01-29T10:38:36.277Z,102734.94
2023-01-29T10:41:18.021Z,102738.16
2023-01-29T10:43:55.977Z,102734.34
2023-01-29T10:46:34.955Z,102716.56
2023-01-29T10:49:18.792Z,102724.81
2023-01-29T10:52:03.362Z,102711.16
2023-01-29T10:54:55.926Z,102708.34
2023-01-29T10:57:43.327Z,102706.50
2023-01-29T11:00:18.505Z,102703.91
2023-01-29T11:02:48.707Z,102696.53
2023-01-29T11:05:31.870Z,102688.88
2023-01-29T11:08:06.374Z,102685.03
2023-01-29T11:10:42.826Z,102683.75
2023-01-29T11:13:15.428Z,102680.47
2023-01-29T11:15:43.450Z,102677.75
2023-01-29T11:18:15.356Z,102675.19
2023-01-29T11:20:45.046Z,102660.09
2023-01-29T11:23:28.049Z,102659.09
2023-01-29T11:25:59.171Z,102650.97
2023-01-29T11:28:36.804Z,102644.25
2023-01-29T11:31:05.415Z,102641.31
2023-01-29T11:33:33.543Z,102636.41
2023-01-29T11:36:21.049Z,102631.75
2023-01-29T11:39:05.856Z,102626.19
2023-01-29T11:41:44.791Z,102621.91
2023-01-29T11:44:28.343Z,102618.97
2023-01-29T11:46:57.638Z,102606.09
2023-01-29T11:49:34.085Z,102606.19
2023-01-29T11:52:04.683Z,102588.31
2023-01-29T11:54:38.655Z,102594.69
2023-01-29T11:57:24.104Z,102588.53
2023-01-29T11:59:54.572Z,102581.97
2023-01-29T12:02:30.703Z,102571.16
2023-01-29T12:05:03.534Z,102572.47
2023-01-29T12:07:32.638Z,102564.66
2023-01-29T12:10:01.416Z,102565.75
2023-01-29T12:12:34.126Z,102558.06
2023-01-29T12:15:20.652Z,102558.28
2023-01-29T12:17:54.869Z,102557.81
2023-01-29T12:20:29.221Z,102546.84
2023-01-29T12:23:04.337Z,102551.06
2023-01-29T12:25:43.504Z,102537.44
2023-01-29T12:28:23.890Z,102531.25
2023-01-29T12:31:03.435Z,102528.47
2023-01-29T12:33:40.990Z,102519.66
2023-01-29T12:36:14.757Z,102524.88
2023-01-29T12:38:45.865Z,102505.97
2023-01-29T12:41:23.928Z,102495.47
2023-01-29T12:43:57.534Z,102499.53
2023-01-29T12:46:29.879Z,102494.41
2023-01-29T12:49:02.659Z,102487.91
2023-01-29T12:51:35.831Z,102477.41
2023-01-29T12:54:08.851Z,102479.13
2023-01-29T12:56:41.120Z,102468.78
2023-01-29T12:59:19.983Z,102473.53
2023-01-29T13:01:53.480Z,102466.47
2023-01-29T13:04:33.493Z,102461.19
2023-01-29T13:07:12.281Z,102449.59
2023-01-29T13:09:45.502Z,102437.84
2023-01-29T13:12:17.479Z,102436.78
2023-01-29T13:14:52.859Z,102431.25
2023-01-29T13:17:31.554Z,102417.56
2023-01-29T13:20:04.435Z,102412.16
2023-01-29T13:22:37.229Z,102415.25
2023-01-29T13:25:06.364Z,102405.97
2023-01-29T13:27:36.296Z,102396.31
2023-01-29T13:30:06.864Z,102391.59
2023-01-29T13:32:37.451Z,102386.53
2023-01-29T13:35:13.947Z,102382.09
2023-01-29T13:37:47.420Z,102374.66
2023-01-29T13:40:23.136Z,102374.75
2023-01-29T13:42:53.187Z,102366.91
2023-01-29T13:45:26.453Z,102371.78
2023-01-29T13:47:55.492Z,102368.28
2023-01-29T13:50:31.053Z,102354.13
2023-01-29T13:53:02.189Z,102358.31
2023-01-29T13:55:33.393Z,102368.28
2023-01-29T13:58:01.636Z,102363.56
2023-01-29T14:00:59.256Z,102363.75
2023-01-29T14:04:05.551Z,102368.00
2023-01-29T14:06:47.438Z,102358.69
2023-01-29T14:10:00.521Z,102358.88
2023-01-29T14:12:40.987Z,102345.34
2023-01-29T14:15:31.472Z,102355.69
2023-01-29T14:18:19.652Z,102338.25
2023-01-29T14:20:58.547Z,102332.88
2023-01-29T14:23:40.410Z,102337.97
2023-01-29T14:26:22.576Z,102341.28
2023-01-29T14:28:57.593Z,102323.75
2023-01-29T14:31:42.658Z,102327.47
2023-01-29T14:34:22.092Z,102324.28
2023-01-29T14:36:55.627Z,102319.88
2023-01-29T14:39:31.594Z,102322.94
2023-01-29T14:42:00.704Z,102323.44
2023-01-29T14:44:48.942Z,102324.63
2023-01-29T14:47:21.381Z,102318.88
2023-01-29T14:49:53.911Z,102319.38
2023-01-29T14:52:27.952Z,102311.25
2023-01-29T14:55:00.970Z,102310.41
2023-01-29T14:57:31.526Z,102305.88
2023-01-29T15:00:02.172Z,102310.75
2023-01-29T15:02:38.991Z,102295.19
2023-01-29T15:05:17.932Z,102293.00
2023-01-29T15:07:54.741Z,102287.25
2023-01-29T15:10:28.471Z,102290.97
2023-01-29T15:13:01.646Z,102277.81
2023-01-29T15:15:37.613Z,102269.69
2023-01-29T15:18:09.481Z,102282.53
2023-01-29T15:20:40.641Z,102285.91
2023-01-29T15:23:26.917Z,102277.31
2023-01-29T15:25:57.660Z,102278.84
2023-01-29T15:28:27.831Z,102282.84
2023-01-29T15:30:59.158Z,102290.13
2023-01-29T15:33:28.113Z,102289.63
2023-01-29T15:36:07.319Z,102290.13
2023-01-29T15:38:35.747Z,102282.84
2023-01-29T15:41:16.058Z,102291.31
2023-01-29T15:43:46.436Z,102284.22
2023-01-29T15:46:21.842Z,102286.06
2023-01-29T15:48:51.286Z,102278.28
2023-01-29T15:51:23.423Z,102271.00
2023-01-29T15:53:55.013Z,102269.69
2023-01-29T15:56:27.889Z,102270.03
2023-01-29T15:58:58.507Z,102269.19
2023-01-29T16:01:27.650Z,102280.88
2023-01-29T16:03:59.295Z,102264.28
2023-01-29T16:06:36.805Z,102263.78
2023-01-29T16:09:06.863Z,102262.75
2023-01-29T16:11:36.287Z,102258.50
2023-01-29T16:14:06.251Z,102267.66
2023-01-29T16:16:34.907Z,102277.63
2023-01-29T16:19:14.483Z,102265.13
2023-01-29T16:21:46.024Z,102264.44
2023-01-29T16:24:22.417Z,102262.22
2023-01-29T16:26:52.734Z,102257.00
2023-01-29T16:29:23.596Z,102262.25
2023-01-29T16:32:00.395Z,102252.63
2023-01-29T16:34:32.723Z,102248.38
2023-01-29T16:37:04.161Z,102237.88
2023-01-29T16:39:35.509Z,102241.94
2023-01-29T16:42:27.988Z,102242.25
2023-01-29T16:44:58.984Z,102237.34
2023-01-29T16:47:28.538Z,102233.78
2023-01-29T16:50:02.227Z,102227.69
2023-01-29T16:52:33.837Z,102221.63
2023-01-29T16:55:16.402Z,102216.88
2023-01-29T16:57:49.008Z,102211.47
2023-01-29T17:00:23.411Z,102208.78
2023-01-29T17:02:54.389Z,102211.81
2023-01-29T17:05:27.299Z,102212.00
2023-01-29T17:07:59.596Z,102215.56
2023-01-29T17:10:30.321Z,102210.16
2023-01-29T17:13:03.932Z,102206.59
2023-01-29T17:15:36.439Z,102197.94
2023-01-29T17:18:05.245Z,102199.66
2023-01-29T17:20:33.689Z,102201.34
2023-01-29T17:23:03.147Z,102203.91
2023-01-29T17:25:42.652Z,102199.16
2023-01-29T17:28:14.053Z,102197.81
2023-01-29T17:30:44.651Z,102205.59
2023-01-29T17:33:14.777Z,102200.66
2023-01-29T17:35:44.181Z,102215.06
2023-01-29T17:38:25.591Z,102232.63
2023-01-29T17:40:59.105Z,102226.53
2023-01-29T17:43:27.199Z,102220.78
2023-01-29T17:45:55.696Z,102211.69
2023-01-29T17:48:26.793Z,102195.94
2023-01-29T17:50:55.400Z,102210.50
2023-01-29T17:53:30.557Z,102205.09
2023-01-29T17:56:04.738Z,102187.16
2023-01-29T17:58:32.775Z,102170.91
2023-01-29T18:01:01.230Z,102161.47
2023-01-29T18:03:30.131Z,102136.28
2023-01-29T18:05:58.106Z,102135.44
2023-01-29T18:08:31.187Z,102133.41
2023-01-29T18:10:59.626Z,102151.50
2023-01-29T18:13:27.880Z,102155.72
2023-01-29T18:15:56.379Z,102164.84
2023-01-29T18:18:25.228Z,102174.31
2023-01-29T18:20:53.402Z,102176.31
2023-01-29T18:23:22.107Z,102179.72
2023-01-29T18:25:52.777Z,102184.63
2023-01-29T18:28:20.933Z,102193.22
2023-01-29T18:30:52.918Z,102196.94
2023-01-29T18:33:21.015Z,102214.84
2023-01-29T18:35:49.209Z,102216.22
2023-01-29T18:38:17.933Z,102215.53
2023-01-29T18:40:45.908Z,102205.06
2023-01-29T18:43:16.309Z,102205.06
2023-01-29T18:45:44.379Z,102199.13
2023-01-29T18:48:12.487Z,102204.72
2023-01-29T18:50:45.404Z,102200.81
2023-01-29T18:53:13.473Z,102207.41
2023-01-29T18:55:41.441Z,102214.16
2023-01-29T18:58:33.484Z,102221.41
2023-01-29T19:00:59.196Z,102245.25
2023-01-29T19:03:27.283Z,102259.56
2023-01-29T19:05:55.291Z,102255.50
2023-01-29T19:08:23.585Z,102252.16
2023-01-29T19:10:51.589Z,102229.66
2023-01-29T19:13:19.548Z,102243.34
2023-01-29T19:15:49.114Z,102232.69
2023-01-29T19:18:18.661Z,102225.63
2023-01-29T19:20:46.670Z,102220.69
2023-01-29T19:23:14.761Z,102248.06
2023-01-29T19:25:42.880Z,102250.06
2023-01-29T19:28:10.984Z,102252.94
2023-01-29T19:30:39.379Z,102251.41
2023-01-29T19:33:07.368Z,102246.84
2023-01-29T19:36:49.299Z,102232.28
2023-01-29T19:39:18.831Z,102226.59
2023-01-29T19:42:01.748Z,102239.06
2023-01-29T19:44:29.816Z,102245.97
2023-01-29T19:46:57.955Z,102234.00
2023-01-29T19:49:26.793Z,102235.69
2023-01-29T19:51:56.093Z,102236.69
2023-01-29T19:54:27.478Z,102226.72
2023-01-29T19:56:55.730Z,102233.97
2023-01-29T19:59:23.904Z,102232.09
2023-01-29T20:01:51.967Z,102218.47
2023-01-29T20:04:20.397Z,102213.50
2023-01-29T20:06:48.574Z,102210.31
2023-01-29T20:09:17.722Z,102220.91
2023-01-29T20:11:47.125Z,102210.44
2023-01-29T20:14:45.681Z,102217.38
2023-01-29T20:17:13.689Z,102204.19
2023-01-29T20:19:41.738Z,102192.84
2023-01-29T20:22:09.764Z,102185.78
2023-01-29T20:24:42.194Z,102190.00
2023-01-29T20:27:12.445Z,102187.63
2023-01-29T20:29:41.123Z,102159.44
2023-01-29T20:32:09.224Z,102158.88
2023-01-29T20:34:37.505Z,102162.94
2023-01-29T20:37:05.620Z,102170.34
2023-01-29T20:39:33.662Z,102145.69
2023-01-29T20:42:01.742Z,102160.06
2023-01-29T20:44:31.148Z,102155.63
2023-01-29T20:47:01.763Z,102155.50
2023-01-29T20:49:30.176Z,102157.63
2023-01-29T20:51:58.225Z,102164.50
2023-01-29T20:54:26.447Z,102178.69
2023-01-29T20:56:54.705Z,102192.28
2023-01-29T20:59:24.185Z,102186.88
2023-01-29T21:01:53.684Z,102201.25
2023-01-29T21:04:21.823Z,102203.91
2023-01-29T21:06:49.845Z,102202.03
2023-01-29T21:09:17.926Z,102209.34
2023-01-29T21:11:46.004Z,102212.31
2023-01-29T21:14:14.195Z,102205.84
2023-01-29T21:16:42.273Z,102222.34
2023-01-29T21:19:14.506Z,102221.88
2023-01-29T21:21:42.582Z,102209.06
2023-01-29T21:24:11.819Z,102199.63
2023-01-29T21:26:40.174Z,102197.06
2023-01-29T21:29:08.223Z,102190.31
2023-01-29T21:32:28.117Z,102198.53
2023-01-29T21:34:57.510Z,102205.41
2023-01-29T21:37:25.670Z,102214.88
2023-01-29T21:39:53.755Z,102204.56
2023-01-29T21:42:39.477Z,102206.94
2023-01-29T21:45:08.984Z,102193.94
2023-01-29T21:47:37.047Z,102197.78
2023-01-29T21:50:07.545Z,102190.41
2023-01-29T21:52:35.560Z,102189.56
2023-01-29T21:55:03.871Z,102196.63
2023-01-29T21:57:31.911Z,102197.66
2023-01-29T22:00:00.170Z,102193.22
2023-01-29T22:02:30.893Z,102195.00
2023-01-29T22:05:17.727Z,102179.16
2023-01-29T22:07:48.855Z,102184.16
2023-01-29T22:10:18.391Z,102199.19
2023-01-29T22:12:49.428Z,102214.13
2023-01-29T22:15:17.654Z,102207.41
2023-01-29T22:17:45.637Z,102194.09
2023-01-29T22:20:18.462Z,102185.84
2023-01-29T22:22:48.012Z,102175.91
2023-01-29T22:25:20.102Z,102165.28
2023-01-29T22:27:48.795Z,102160.88
2023-01-29T22:30:17.555Z,102145.72
2023-01-29T22:32:45.956Z,102136.91
2023-01-29T22:35:13.930Z,102139.94
2023-01-29T22:37:42.124Z,102136.25
2023-01-29T22:40:12.942Z,102133.19
2023-01-29T22:42:41.345Z,102142.59
2023-01-29T22:46:24.638Z,102138.66
2023-01-29T22:48:52.741Z,102140.63
2023-01-29T22:51:20.901Z,102144.34
2023-01-29T22:53:51.233Z,102150.75
2023-01-29T22:56:25.226Z,102156.66
2023-01-29T22:58:53.872Z,102153.13
2023-01-29T23:01:23.469Z,102148.34
2023-01-29T23:03:51.628Z,102148.97
2023-01-29T23:06:21.735Z,102140.44
2023-01-29T23:08:50.510Z,102133.03
2023-01-29T23:11:21.636Z,102117.00
2023-01-29T23:13:50.479Z,102118.03
2023-01-29T23:16:19.831Z,102108.91
2023-01-29T23:18:51.047Z,102109.75
2023-01-29T23:21:19.495Z,102107.25
2023-01-29T23:23:49.204Z,102107.56
2023-01-29T23:26:31.114Z,102093.38
2023-01-29T23:29:01.267Z,102098.31
2023-01-29T23:31:55.187Z,102097.69
2023-01-29T23:34:23.511Z,102100.06
2023-01-29T23:36:51.606Z,102104.38
2023-01-29T23:39:20.585Z,102104.47
2023-01-29T23:41:49.970Z,102105.44
2023-01-29T23:44:20.313Z,102104.47
2023-01-29T23:46:48.452Z,102106.47
2023-01-29T23:49:16.577Z,102092.09
2023-01-29T23:51:45.748Z,102095.53
2023-01-29T23:54:14.350Z,102098.09
2023-01-29T23:56:42.399Z,102097.75
2023-01-29T23:59:11.706Z,102091.28
